createdAt,value
2022-10-28T00:00:41.990Z,101549.06
2022-10-28T00:05:46.254Z,101547.09
2022-10-28T00:10:48.760Z,101529.03
2022-10-28T00:15:51.304Z,101530.44
2022-10-28T00:21:00.751Z,101538.91
2022-10-28T00:26:07.301Z,101537.94
2022-10-28T00:31:12.547Z,101547.41
2022-10-28T00:36:18.849Z,101543.78
2022-10-28T00:41:23.623Z,101529.63
2022-10-28T00:46:30.992Z,101525.41
2022-10-28T00:51:36.726Z,101525.81
2022-10-28T00:56:44.480Z,101527.63
2022-10-28T01:01:47.480Z,101515.75
2022-10-28T01:06:52.616Z,101524.94
2022-10-28T01:12:01.632Z,101530.28
2022-10-28T01:17:16.700Z,101532.13
2022-10-28T01:22:25.141Z,101537.19
2022-10-28T01:27:51.917Z,101530.53
2022-10-28T01:33:05.944Z,101516.56
2022-10-28T01:38:20.127Z,101520.47
2022-10-28T01:43:28.085Z,101510.72
2022-10-28T01:53:42.441Z,101519.16
2022-10-28T01:58:46.072Z,101512.09
2022-10-28T02:03:50.781Z,101522.38
2022-10-28T02:09:14.455Z,101506.41
2022-10-28T02:14:26.608Z,101499.22
2022-10-28T02:19:39.082Z,101492.16
2022-10-28T02:24:48.150Z,101494.84
2022-10-28T02:29:55.800Z,101494.16
2022-10-28T02:35:02.672Z,101494.25
2022-10-28T02:40:10.475Z,101491.31
2022-10-28T02:45:17.013Z,101496.38
2022-10-28T02:50:26.463Z,101488.88
2022-10-28T02:55:33.517Z,101482.53
2022-10-28T03:00:36.080Z,101478.69
2022-10-28T03:05:39.981Z,101478.69
2022-10-28T03:10:42.482Z,101474.75
2022-10-28T03:15:45.001Z,101470.34
2022-10-28T03:20:49.513Z,101464.88
2022-10-28T03:25:52.037Z,101455.53
2022-10-28T03:30:54.529Z,101449.47
2022-10-28T03:35:58.560Z,101450.00
2022-10-28T03:41:01.113Z,101440.38
2022-10-28T03:46:04.324Z,101434.84
2022-10-28T03:51:08.363Z,101439.69
2022-10-28T03:56:12.460Z,101444.72
2022-10-28T04:01:15.596Z,101449.22
2022-10-28T04:06:19.484Z,101448.81
2022-10-28T04:11:22.407Z,101463.19
2022-10-28T04:16:24.964Z,101451.88
2022-10-28T04:21:28.799Z,101455.53
2022-10-28T04:26:31.727Z,101475.00
2022-10-28T04:31:34.336Z,101460.75
2022-10-28T04:36:38.641Z,101466.25
2022-10-28T04:41:41.312Z,101470.16
2022-10-28T04:46:43.843Z,101458.75
2022-10-28T04:56:55.560Z,101463.25
2022-10-28T05:01:58.619Z,101462.16
2022-10-28T05:07:02.588Z,101462.94
2022-10-28T05:12:06.564Z,101465.72
2022-10-28T05:17:09.792Z,101475.34
2022-10-28T05:22:13.652Z,101468.31
2022-10-28T05:27:16.761Z,101471.34
2022-10-28T05:32:19.305Z,101465.41
2022-10-28T05:37:23.289Z,101468.78
2022-10-28T05:42:25.897Z,101461.34
2022-10-28T05:47:28.711Z,101461.97
2022-10-28T05:52:32.589Z,101455.75
2022-10-28T05:57:35.836Z,101457.44
2022-10-28T06:02:38.355Z,101471.41
2022-10-28T06:07:42.843Z,101460.19
2022-10-28T06:12:43.804Z,101458.94
2022-10-28T06:17:47.896Z,101459.44
2022-10-28T06:22:53.784Z,101471.63
2022-10-28T06:28:00.885Z,101471.88
2022-10-28T06:33:03.451Z,101462.28
2022-10-28T06:38:09.618Z,101478.34
2022-10-28T06:43:12.888Z,101473.31
2022-10-28T06:48:16.908Z,101488.28
2022-10-28T06:53:22.400Z,101487.13
2022-10-28T06:58:25.750Z,101487.72
2022-10-28T07:03:28.349Z,101482.66
2022-10-28T07:08:32.671Z,101452.78
2022-10-28T07:13:35.218Z,101490.91
2022-10-28T07:18:37.737Z,101505.03
2022-10-28T07:23:41.683Z,101505.88
2022-10-28T07:28:44.195Z,101496.56
2022-10-28T07:33:46.775Z,101494.31
2022-10-28T07:38:52.404Z,101498.44
2022-10-28T07:43:54.975Z,101479.75
2022-10-28T07:48:57.898Z,101515.69
2022-10-28T07:54:01.839Z,101511.28
2022-10-28T07:59:04.548Z,101500.66
2022-10-28T08:04:07.223Z,101518.91
2022-10-28T08:09:11.127Z,101527.31
2022-10-28T08:14:13.720Z,101521.38
2022-10-28T08:19:16.232Z,101523.78
2022-10-28T08:24:20.355Z,101521.75
2022-10-28T08:29:27.642Z,101513.88
2022-10-28T08:34:32.631Z,101492.88
2022-10-28T08:39:36.896Z,101487.38
2022-10-28T08:44:53.448Z,101497.69
2022-10-28T08:49:58.910Z,101508.34
2022-10-28T08:55:07.198Z,101497.59
2022-10-28T09:00:20.518Z,101495.34
2022-10-28T09:05:24.751Z,101503.00
2022-10-28T09:10:50.996Z,101463.84
2022-10-28T09:16:04.636Z,101430.59
2022-10-28T09:21:14.442Z,101416.34
2022-10-28T09:26:25.392Z,101490.34
2022-10-28T09:31:31.509Z,101493.75
2022-10-28T09:36:37.707Z,101492.59
2022-10-28T09:41:43.683Z,101495.59
2022-10-28T09:46:49.414Z,101500.25
2022-10-28T09:51:56.525Z,101501.06
2022-10-28T09:57:00.725Z,101505.13
2022-10-28T10:02:04.417Z,101500.56
2022-10-28T10:07:12.783Z,101519.81
2022-10-28T10:12:17.225Z,101508.53
2022-10-28T10:17:23.544Z,101515.97
2022-10-28T10:22:31.020Z,101509.78
2022-10-28T10:27:35.137Z,101510.34
2022-10-28T10:32:37.745Z,101512.19
2022-10-28T10:37:45.930Z,101515.97
2022-10-28T10:43:09.701Z,101503.63
2022-10-28T10:48:14.882Z,101507.13
2022-10-28T10:53:24.286Z,101502.78
2022-10-28T10:58:36.039Z,101505.63
2022-10-28T11:03:54.718Z,101493.75
2022-10-28T11:09:00.559Z,101507.88
2022-10-28T11:14:08.290Z,101499.38
2022-10-28T11:19:20.518Z,101482.75
2022-10-28T11:24:41.337Z,101467.47
2022-10-28T11:29:45.766Z,101435.84
2022-10-28T11:35:10.728Z,101465.34
2022-10-28T11:40:27.575Z,101460.69
2022-10-28T11:45:38.660Z,101454.09
2022-10-28T11:50:59.074Z,101446.94
2022-10-28T11:56:13.599Z,101453.69
2022-10-28T12:01:34.283Z,101433.66
2022-10-28T12:07:00.201Z,101426.56
2022-10-28T12:12:16.327Z,101421.59
2022-10-28T12:17:28.702Z,101420.38
2022-10-28T12:22:35.100Z,101417.53
2022-10-28T12:27:43.416Z,101393.41
2022-10-28T12:32:51.340Z,101396.47
2022-10-28T12:38:02.065Z,101403.41
2022-10-28T12:43:11.182Z,101406.25
2022-10-28T12:48:23.949Z,101407.03
2022-10-28T12:53:35.846Z,101413.59
2022-10-28T12:58:46.330Z,101412.50
2022-10-28T13:03:53.622Z,101416.53
2022-10-28T13:09:13.810Z,101421.13
2022-10-28T13:14:34.703Z,101431.25
2022-10-28T13:19:51.554Z,101438.97
2022-10-28T13:25:02.918Z,101438.88
2022-10-28T13:30:07.020Z,101424.03
2022-10-28T13:35:16.978Z,101449.78
2022-10-28T13:40:44.179Z,101450.75
2022-10-28T13:45:53.636Z,101446.09
2022-10-28T13:51:30.364Z,101456.28
2022-10-28T13:56:44.917Z,101385.22
2022-10-28T14:02:02.227Z,101486.69
2022-10-28T14:07:23.467Z,101480.81
2022-10-28T14:12:32.347Z,101479.56
2022-10-28T14:17:39.642Z,101485.97
2022-10-28T14:22:42.304Z,101497.25
2022-10-28T14:27:45.226Z,101502.78
2022-10-28T14:33:26.436Z,101517.16
2022-10-28T14:39:05.235Z,101506.94
2022-10-28T14:44:23.772Z,101487.88
2022-10-28T14:49:28.872Z,101494.50
2022-10-28T14:54:40.912Z,101531.34
2022-10-28T14:59:45.575Z,101538.53
2022-10-28T15:04:58.434Z,101547.91
2022-10-28T15:10:13.370Z,101547.69
2022-10-28T15:15:20.939Z,101554.53
2022-10-28T15:20:25.793Z,101553.31
2022-10-28T15:25:30.157Z,101523.84
2022-10-28T15:30:34.693Z,101540.84
2022-10-28T15:35:40.670Z,101546.81
2022-10-28T15:40:45.279Z,101546.84
2022-10-28T15:45:48.813Z,101542.50
2022-10-28T15:51:13.216Z,101561.13
2022-10-28T15:56:22.125Z,101565.94
2022-10-28T16:01:30.834Z,101581.53
2022-10-28T16:06:37.570Z,101590.06
2022-10-28T16:11:47.002Z,101596.88
2022-10-28T16:16:50.777Z,101572.91
2022-10-28T16:21:53.548Z,101599.19
2022-10-28T16:27:15.974Z,101602.94
2022-10-28T16:32:23.657Z,101594.44
2022-10-28T16:37:27.981Z,101581.84
2022-10-28T16:42:31.887Z,101613.13
2022-10-28T16:47:34.827Z,101615.81
2022-10-28T16:52:37.723Z,101610.47
2022-10-28T16:57:41.729Z,101611.75
2022-10-28T17:02:44.352Z,101624.59
2022-10-28T17:07:47.062Z,101641.16
2022-10-28T17:12:53.407Z,101616.97
2022-10-28T17:17:59.976Z,101665.34
2022-10-28T17:23:05.236Z,101663.34
2022-10-28T17:28:11.424Z,101661.72
2022-10-28T17:33:18.282Z,101644.44
2022-10-28T17:38:30.909Z,101665.38
2022-10-28T17:43:38.977Z,101662.53
2022-10-28T17:48:48.084Z,101649.34
2022-10-28T17:53:59.669Z,101655.25
2022-10-28T17:59:06.472Z,101668.09
2022-10-28T18:04:11.458Z,101673.72
2022-10-28T18:09:14.293Z,101673.94
2022-10-28T18:14:20.047Z,101681.38
2022-10-28T18:19:22.667Z,101575.72
2022-10-28T18:24:26.216Z,101688.81
2022-10-28T18:29:30.204Z,101701.66
2022-10-28T18:34:32.957Z,101702.31
2022-10-28T18:39:35.547Z,101710.41
2022-10-28T18:44:41.283Z,101716.47
2022-10-28T18:49:45.362Z,101723.31
2022-10-28T18:54:48.006Z,101721.97
2022-10-28T19:00:17.342Z,101733.94
2022-10-28T19:05:15.167Z,101733.59
2022-10-28T19:10:17.850Z,101726.78
2022-10-28T19:15:22.210Z,101718.13
2022-10-28T19:20:25.142Z,101700.00
2022-10-28T19:25:27.746Z,101744.38
2022-10-28T19:30:32.203Z,101750.44
2022-10-28T19:35:35.218Z,101745.69
2022-10-28T19:40:38.105Z,101760.69
2022-10-28T19:45:42.758Z,101737.81
2022-10-28T19:50:49.812Z,101744.97
2022-10-28T19:55:56.567Z,101762.00
2022-10-28T20:01:02.294Z,101766.53
2022-10-28T20:06:07.444Z,101781.13
2022-10-28T20:11:11.937Z,101781.66
2022-10-28T20:16:17.735Z,101795.66
2022-10-28T20:21:21.329Z,101758.66
2022-10-28T20:26:27.902Z,101779.59
2022-10-28T20:31:33.017Z,101777.78
2022-10-28T20:36:37.485Z,101796.28
2022-10-28T20:41:41.549Z,101795.44
2022-10-28T20:46:47.675Z,101806.53
2022-10-28T20:51:50.572Z,101815.28
2022-10-28T20:56:53.069Z,101824.78
2022-10-28T21:01:56.993Z,101831.22
2022-10-28T21:06:59.582Z,101831.75
2022-10-28T21:12:02.101Z,101833.06
2022-10-28T21:17:05.930Z,101831.97
2022-10-28T21:22:08.502Z,101841.09
2022-10-28T21:27:11.043Z,101841.81
2022-10-28T21:32:14.915Z,101846.66
2022-10-28T21:37:17.564Z,101854.69
2022-10-28T21:42:20.093Z,101855.31
2022-10-28T21:47:24.450Z,101855.31
2022-10-28T21:52:27.025Z,101848.13
2022-10-28T21:57:30.635Z,101850.69
2022-10-28T22:02:34.583Z,101855.06
2022-10-28T22:07:37.401Z,101852.88
2022-10-28T22:12:39.923Z,101858.59
2022-10-28T22:17:43.806Z,101862.06
2022-10-28T22:22:46.321Z,101864.28
2022-10-28T22:27:49.026Z,101855.06
2022-10-28T22:32:53.285Z,101858.63
2022-10-28T22:37:56.355Z,101867.41
2022-10-28T22:42:59.674Z,101868.13
2022-10-28T22:48:03.609Z,101873.09
2022-10-28T22:53:06.527Z,101862.53
2022-10-28T22:58:09.111Z,101874.75
2022-10-28T23:03:13.803Z,101876.59
2022-10-28T23:08:16.853Z,101871.44
2022-10-28T23:13:19.371Z,101882.25
2022-10-28T23:18:27.019Z,101884.41
2022-10-28T23:23:29.545Z,101883.97
2022-10-28T23:28:32.194Z,101881.88
2022-10-28T23:33:36.083Z,101882.38
2022-10-28T23:38:38.628Z,101891.06
2022-10-28T23:43:41.671Z,101894.91
2022-10-28T23:48:45.554Z,101894.09
2022-10-28T23:53:48.087Z,101882.03
2022-10-28T23:58:50.630Z,101882.16
